Ridgefield, North Carolina
Current Conditions -  °F | °C
As of 10:54 AM on Wednesday 22 Oct 2014 (Local Time) from KGSO Reporting Station
Few Clouds Few Clouds  
Wind Chill: 58°   Ceiling: Unl
Heat Index: 58°   Visibility: 10mi
Dew Point: 40°   Wind: 12mph
Humidity: 51%   Direction: 340°NNW
Pressure: 30.04"   Gusts: 18mph
Location:  36.1197°N, 79.8944°W
Report Text: KGSO 221454Z 34010G16KT 10SM FEW050 14/04 A3004 RMK AO2 SLP169 T01440044 51009
Loading
Personal Weather Stations






























Interactive Weather Map
Tropical Storm Tracking
New forecast layout! Learn more

10-Day Weather Forecast

Advertisements
Track Severe Weather on mobile